Time;durP1;ratioP1;P1;durP2;ratioP2;P2;SDS_P1;SDS_P2;PMS_P1;PMS_P2;Temp;Humidity;BMP_temperature;BMP_pressure;BME280_temperature;BME280_humidity;BME280_pressure;Samples;Min_cycle;Max_cycle;Signal;HPM_P1;HPM_P2
2022/08/16 00:00:47;;;;;;;8.43;7.38;;;;;;;20.46;68.25;100535.75;5013226;28;20050;-57
2022/08/16 00:03:12;;;;;;;9.77;7.25;;;;;;;20.33;68.18;100531.44;5010290;28;20052;-57
2022/08/16 00:05:38;;;;;;;9.57;7.55;;;;;;;20.27;68.51;100529.72;5014947;28;20121;-57
2022/08/16 00:08:04;;;;;;;9.38;7.88;;;;;;;20.27;68.54;100534.31;5009455;28;20058;-56
2022/08/16 00:10:33;;;;;;;8.02;7.22;;;;;;;20.31;68.74;100535.44;5008689;28;20026;-57
2022/08/16 00:13:00;;;;;;;8.98;7.28;;;;;;;20.20;68.77;100533.59;5011173;28;20064;-57
2022/08/16 00:15:31;;;;;;;14.60;7.80;;;;;;;20.20;68.59;100539.81;5008610;28;20029;-57
2022/08/16 00:17:57;;;;;;;10.60;7.75;;;;;;;20.16;68.85;100535.16;5008586;28;20033;-58
2022/08/16 00:20:22;;;;;;;13.43;8.25;;;;;;;20.16;69.03;100535.16;5010809;28;20021;-58
2022/08/16 00:22:48;;;;;;;9.43;8.05;;;;;;;20.08;69.10;100539.88;5007682;28;20014;-56
2022/08/16 00:25:16;;;;;;;9.10;8.00;;;;;;;20.02;69.42;100554.31;5011005;28;20429;-57
2022/08/16 00:27:42;;;;;;;11.30;7.82;;;;;;;19.96;69.30;100544.50;5011992;28;20398;-58
2022/08/16 00:30:12;;;;;;;11.50;9.13;;;;;;;19.92;69.64;100550.59;5011286;28;20022;-58
2022/08/16 00:32:40;;;;;;;17.40;8.80;;;;;;;19.88;69.21;100555.63;5010043;28;20030;-58
2022/08/16 00:35:08;;;;;;;13.18;8.70;;;;;;;19.84;69.13;100554.47;5008775;28;20034;-57
2022/08/16 00:37:33;;;;;;;11.07;8.40;;;;;;;19.75;69.67;100550.53;5008513;28;20030;-57
2022/08/16 00:39:59;;;;;;;10.25;8.32;;;;;;;19.65;69.35;100551.13;5006087;28;20026;-57
2022/08/16 00:42:27;;;;;;;10.02;8.32;;;;;;;19.69;69.38;100556.88;5009915;28;20022;-56
2022/08/16 00:44:57;;;;;;;9.65;8.15;;;;;;;19.69;69.81;100559.56;5008587;28;20048;-57
2022/08/16 00:47:25;;;;;;;10.38;8.35;;;;;;;19.65;69.67;100551.13;5009832;28;20022;-57
2022/08/16 00:49:50;;;;;;;9.60;8.05;;;;;;;19.71;69.64;100554.75;5006060;28;20021;-57
2022/08/16 00:52:16;;;;;;;10.65;8.90;;;;;;;19.66;69.88;100558.19;5006038;28;20117;-57
2022/08/16 00:54:42;;;;;;;14.25;9.23;;;;;;;19.71;70.39;100554.75;5004406;28;20030;-58
2022/08/16 00:57:07;;;;;;;14.70;8.23;;;;;;;19.66;70.12;100565.41;5002895;28;20034;-57
2022/08/16 00:59:35;;;;;;;14.68;8.20;;;;;;;19.68;70.30;100566.84;5010306;28;20037;-57
2022/08/16 01:02:04;;;;;;;18.90;8.02;;;;;;;19.60;70.42;100564.47;5008771;28;20021;-57
2022/08/16 01:04:30;;;;;;;13.05;7.88;;;;;;;19.62;70.20;100566.94;5007171;28;20030;-57
2022/08/16 01:06:55;;;;;;;11.13;8.70;;;;;;;19.63;70.55;100552.41;5006465;28;20734;-57
2022/08/16 01:09:21;;;;;;;12.27;8.38;;;;;;;19.59;70.83;100564.72;5007511;28;20017;-57
2022/08/16 01:11:47;;;;;;;9.88;8.43;;;;;;;19.60;70.51;100566.34;5006093;28;20040;-57
2022/08/16 01:14:20;;;;;;;10.88;9.20;;;;;;;19.60;70.52;100566.34;5006874;28;20030;-57
2022/08/16 01:16:46;;;;;;;11.88;9.25;;;;;;;19.52;70.51;100567.50;5005775;28;20088;-57
2022/08/16 01:19:20;;;;;;;11.18;10.02;;;;;;;19.54;70.64;100556.53;5008654;28;20033;-57
2022/08/16 01:21:56;;;;;;;11.07;9.57;;;;;;;19.44;70.88;100559.81;5006177;28;20018;-56
2022/08/16 01:24:25;;;;;;;10.23;9.20;;;;;;;19.23;70.43;100563.91;5007358;28;20048;-57
2022/08/16 01:26:55;;;;;;;12.50;9.38;;;;;;;19.16;70.50;100569.41;5009762;28;20116;-58
2022/08/16 01:29:27;;;;;;;10.32;8.05;;;;;;;19.17;70.81;100576.44;5008513;28;20026;-57
2022/08/16 01:31:53;;;;;;;10.75;8.70;;;;;;;19.05;70.37;100572.06;5007107;28;20046;-57
2022/08/16 01:34:18;;;;;;;14.05;8.43;;;;;;;18.92;70.12;100558.84;5009999;28;20018;-57
2022/08/16 01:36:44;;;;;;;12.35;9.05;;;;;;;19.06;70.58;100558.38;5016688;28;20022;-55
2022/08/16 01:39:13;;;;;;;10.38;8.55;;;;;;;18.92;70.39;100561.53;5010440;28;20068;-57
2022/08/16 01:41:40;;;;;;;13.50;9.82;;;;;;;18.98;70.97;100557.91;5011238;28;20029;-57
2022/08/16 01:44:05;;;;;;;11.02;8.30;;;;;;;18.96;71.19;100552.78;5012796;28;20037;-57
2022/08/16 01:46:35;;;;;;;9.93;8.73;;;;;;;18.80;71.31;100556.97;5013335;28;20033;-57
2022/08/16 01:49:08;;;;;;;11.23;9.43;;;;;;;18.91;71.54;100554.53;5008771;28;20026;-57
2022/08/16 01:51:35;;;;;;;11.70;10.55;;;;;;;18.87;71.65;100555.00;5007007;28;20041;-57
2022/08/16 01:54:01;;;;;;;11.63;9.38;;;;;;;18.81;71.65;100555.91;5009067;28;20029;-57
2022/08/16 01:56:28;;;;;;;12.77;9.98;;;;;;;18.77;72.00;100562.78;5011093;28;20030;-57
2022/08/16 01:58:55;;;;;;;11.18;10.02;;;;;;;18.70;72.17;100563.94;5012984;28;20030;-57
2022/08/16 02:01:21;;;;;;;13.00;10.25;;;;;;;18.68;72.27;100561.50;5010474;28;20048;-57
2022/08/16 02:03:47;;;;;;;14.07;9.38;;;;;;;18.60;72.02;100559.13;5010497;28;20474;-57
2022/08/16 02:06:12;;;;;;;10.73;9.63;;;;;;;18.54;72.23;100562.72;5008683;28;20040;-57
2022/08/16 02:08:37;;;;;;;13.25;9.70;;;;;;;18.49;71.90;100562.56;5007459;28;20711;-57
2022/08/16 02:11:07;;;;;;;12.90;10.48;;;;;;;18.41;72.34;100562.91;5011777;28;20037;-56
2022/08/16 02:13:32;;;;;;;13.05;10.88;;;;;;;18.32;72.62;100554.34;5015708;28;20026;-58
2022/08/16 02:15:58;;;;;;;15.55;10.98;;;;;;;18.26;73.32;100558.78;5012882;28;20036;-56
2022/08/16 02:18:23;;;;;;;12.52;10.60;;;;;;;18.23;73.62;100553.84;5010973;28;20072;-58
2022/08/16 02:20:51;;;;;;;13.02;11.60;;;;;;;18.18;73.62;100560.94;5011653;28;20037;-58
2022/08/16 02:23:17;;;;;;;13.75;11.57;;;;;;;18.15;73.38;100556.84;5007316;28;20040;-58
2022/08/16 02:25:43;;;;;;;13.00;11.55;;;;;;;18.09;73.43;100563.13;5015043;28;20113;-57
2022/08/16 02:28:09;;;;;;;14.13;11.77;;;;;;;18.05;73.58;100553.88;5008822;28;20039;-57
2022/08/16 02:30:34;;;;;;;15.10;11.73;;;;;;;18.14;73.63;100549.00;5012611;28;20022;-57
2022/08/16 02:33:00;;;;;;;13.75;11.02;;;;;;;18.20;74.12;100551.59;5016449;28;20022;-57
2022/08/16 02:35:26;;;;;;;13.07;11.65;;;;;;;18.17;73.71;100549.38;5010865;28;20026;-57
2022/08/16 02:37:53;;;;;;;13.90;10.77;;;;;;;18.27;73.98;100551.53;5005827;28;20023;-58
2022/08/16 02:40:21;;;;;;;15.38;11.60;;;;;;;18.29;73.96;100554.00;5009035;28;20060;-58
2022/08/16 02:42:48;;;;;;;11.88;10.77;;;;;;;18.30;73.81;100558.31;4998766;28;20038;-57
2022/08/16 02:45:14;;;;;;;14.02;11.38;;;;;;;18.35;73.82;100561.13;5007504;28;20053;-57
2022/08/16 02:47:40;;;;;;;13.43;11.23;;;;;;;18.35;73.96;100561.13;5009991;28;20112;-56
2022/08/16 02:50:06;;;;;;;13.63;11.02;;;;;;;18.33;73.82;100563.22;5005379;28;20034;-58
2022/08/16 02:52:32;;;;;;;14.43;11.10;;;;;;;18.34;73.82;100554.94;5009131;28;20090;-57
2022/08/16 02:54:57;;;;;;;14.60;12.10;;;;;;;18.33;74.27;100555.16;5009968;28;20037;-57
2022/08/16 02:57:23;;;;;;;15.45;12.75;;;;;;;18.37;74.44;100550.97;5000369;28;20034;-57
2022/08/16 02:59:49;;;;;;;14.85;12.00;;;;;;;18.24;74.46;100558.19;5007824;28;20481;-57
2022/08/16 03:02:15;;;;;;;12.55;11.25;;;;;;;18.13;74.00;100550.88;5006506;28;20030;-55
2022/08/16 03:04:40;;;;;;;13.68;11.63;;;;;;;18.06;73.91;100552.00;5007873;28;20417;-56
2022/08/16 03:07:05;;;;;;;18.38;15.07;;;;;;;18.15;74.37;100556.84;5005264;28;20125;-55
2022/08/16 03:09:32;;;;;;;16.42;14.68;;;;;;;18.17;74.96;100545.84;5003032;28;20018;-55
2022/08/16 03:11:58;;;;;;;19.20;15.73;;;;;;;18.10;75.28;100532.53;5014644;28;20393;-55
2022/08/16 03:14:24;;;;;;;22.63;16.50;;;;;;;18.09;75.48;100535.44;5010096;28;20033;-55
2022/08/16 03:16:49;;;;;;;20.15;15.48;;;;;;;18.10;75.72;100537.06;5010758;28;20493;-55
2022/08/16 03:19:14;;;;;;;18.58;15.93;;;;;;;18.10;75.69;100543.25;5010655;28;20053;-56
2022/08/16 03:21:40;;;;;;;18.13;15.88;;;;;;;18.04;76.33;100538.81;5007830;28;20053;-55
2022/08/16 03:24:06;;;;;;;21.23;16.95;;;;;;;17.94;76.21;100535.84;5009165;28;20025;-55
2022/08/16 03:26:32;;;;;;;22.27;17.45;;;;;;;17.83;76.56;100534.72;5011253;28;20389;-56
2022/08/16 03:28:57;;;;;;;20.77;17.90;;;;;;;17.72;77.52;100531.97;5009722;28;20030;-55
2022/08/16 03:31:22;;;;;;;20.35;17.60;;;;;;;17.64;77.89;100533.91;5009400;28;20107;-55
2022/08/16 03:33:47;;;;;;;22.95;18.58;;;;;;;17.66;77.99;100536.38;5011395;28;20018;-55
2022/08/16 03:36:13;;;;;;;23.17;18.25;;;;;;;17.63;78.18;100536.78;5006339;28;20397;-55
2022/08/16 03:38:38;;;;;;;21.55;18.45;;;;;;;17.60;78.73;100538.06;5010820;28;20037;-55
2022/08/16 03:41:05;;;;;;;23.80;18.92;;;;;;;17.56;78.64;100552.97;5011289;28;20018;-55
2022/08/16 03:43:30;;;;;;;25.50;18.92;;;;;;;17.48;78.82;100547.91;5010103;28;20459;-55
2022/08/16 03:45:56;;;;;;;22.77;19.17;;;;;;;17.43;79.39;100553.13;5010305;28;20105;-55
2022/08/16 03:48:27;;;;;;;27.30;19.58;;;;;;;17.41;79.67;100546.34;5012715;28;20036;-54
2022/08/16 03:50:52;;;;;;;22.30;18.67;;;;;;;17.41;79.59;100555.22;5010196;28;20096;-55
2022/08/16 03:53:18;;;;;;;24.15;18.80;;;;;;;17.41;79.83;100560.59;5004219;28;20105;-55
2022/08/16 03:55:43;;;;;;;21.50;18.60;;;;;;;17.41;80.03;100559.75;5012363;28;20029;-55
2022/08/16 03:58:08;;;;;;;22.67;19.02;;;;;;;17.39;80.08;100562.69;5007312;28;20049;-55
2022/08/16 04:00:33;;;;;;;21.13;18.50;;;;;;;17.41;80.62;100565.97;5008388;28;20021;-56
2022/08/16 04:03:05;;;;;;;23.10;18.70;;;;;;;17.42;80.41;100566.78;5005177;28;20022;-55
2022/08/16 04:05:34;;;;;;;21.48;19.15;;;;;;;17.38;80.26;100566.41;5011687;28;20029;-55
2022/08/16 04:08:00;;;;;;;24.13;19.75;;;;;;;17.42;80.82;100577.50;5009375;28;20033;-54
2022/08/16 04:10:25;;;;;;;28.25;19.85;;;;;;;17.41;80.48;100573.19;5006890;28;20386;-55
2022/08/16 04:12:50;;;;;;;26.00;19.35;;;;;;;17.43;80.48;100573.78;5012801;28;20018;-55
2022/08/16 04:15:16;;;;;;;26.42;20.38;;;;;;;17.48;80.80;100573.94;5009264;28;20029;-55
2022/08/16 04:17:42;;;;;;;23.70;19.23;;;;;;;17.49;80.40;100579.09;5015950;28;20496;-55
2022/08/16 04:20:10;;;;;;;25.60;19.40;;;;;;;17.53;80.42;100574.91;5007191;28;20033;-55
2022/08/16 04:22:36;;;;;;;23.05;18.45;;;;;;;17.57;80.46;100580.66;5006371;28;20456;-55
2022/08/16 04:25:03;;;;;;;24.42;19.40;;;;;;;17.63;80.46;100572.50;5007544;28;20029;-55
2022/08/16 04:27:28;;;;;;;21.23;18.00;;;;;;;17.71;79.87;100582.19;5016361;28;20025;-55
2022/08/16 04:29:53;;;;;;;23.33;17.88;;;;;;;17.78;79.68;100576.75;5010859;28;20028;-54
2022/08/16 04:32:19;;;;;;;27.48;19.80;;;;;;;17.86;79.70;100584.50;5004821;28;20477;-55
2022/08/16 04:34:44;;;;;;;22.67;18.80;;;;;;;17.87;79.19;100580.75;5005399;28;20026;-55
2022/08/16 04:37:09;;;;;;;23.52;18.55;;;;;;;17.91;79.15;100577.41;5005922;28;20508;-55
2022/08/16 04:39:35;;;;;;;23.83;17.77;;;;;;;17.84;78.76;100581.22;5003394;28;20034;-55
2022/08/16 04:42:02;;;;;;;28.33;20.48;;;;;;;17.94;79.35;100584.22;5006582;28;20041;-55
2022/08/16 04:44:27;;;;;;;22.27;18.65;;;;;;;17.96;79.20;100579.44;5009883;28;20029;-55
2022/08/16 04:46:53;;;;;;;23.70;18.73;;;;;;;17.97;78.80;100573.00;5007372;28;20073;-55
2022/08/16 04:49:18;;;;;;;23.33;19.88;;;;;;;18.02;78.93;100581.22;5010424;28;20426;-56
2022/08/16 04:51:44;;;;;;;25.00;20.35;;;;;;;18.01;79.03;100589.50;5008395;28;20536;-55
2022/08/16 04:54:10;;;;;;;28.17;20.48;;;;;;;18.03;78.88;100598.97;5006200;28;20040;-56
2022/08/16 04:56:36;;;;;;;25.95;20.27;;;;;;;17.99;78.96;100592.41;5008166;28;20070;-55
2022/08/16 04:59:03;;;;;;;22.92;20.27;;;;;;;17.97;78.94;100588.31;5009647;28;20522;-55
2022/08/16 05:01:28;;;;;;;24.48;21.05;;;;;;;17.97;79.33;100593.69;5006332;28;20029;-54
2022/08/16 05:03:54;;;;;;;28.65;22.35;;;;;;;17.92;79.55;100595.16;5008751;28;20445;-55
2022/08/16 05:06:19;;;;;;;27.83;21.92;;;;;;;17.88;79.67;100595.81;5011109;28;20455;-55
2022/08/16 05:08:45;;;;;;;24.23;21.63;;;;;;;17.87;79.55;100600.38;5007756;28;20476;-55
2022/08/16 05:11:12;;;;;;;28.67;21.17;;;;;;;17.88;79.65;100593.16;5009111;28;20034;-55
2022/08/16 05:13:40;;;;;;;27.67;22.23;;;;;;;17.95;79.92;100610.03;5005791;28;20064;-55
2022/08/16 05:16:08;;;;;;;29.88;22.80;;;;;;;17.93;79.99;100612.13;5010318;28;20076;-55
2022/08/16 05:18:35;;;;;;;26.20;22.85;;;;;;;17.87;80.23;100621.06;5008294;28;20444;-55
2022/08/16 05:21:01;;;;;;;26.40;21.95;;;;;;;17.81;80.05;100625.47;5011115;28;20117;-56
2022/08/16 05:23:26;;;;;;;25.55;21.60;;;;;;;17.80;79.94;100626.50;5003073;28;20025;-55
2022/08/16 05:25:51;;;;;;;28.27;22.90;;;;;;;17.82;80.21;100623.59;5007805;28;20026;-55
2022/08/16 05:28:17;;;;;;;27.55;22.80;;;;;;;17.92;80.48;100626.56;5002742;28;20033;-56
2022/08/16 05:30:43;;;;;;;28.48;22.45;;;;;;;17.92;80.11;100616.66;5008536;28;20050;-55
2022/08/16 05:33:08;;;;;;;29.17;22.77;;;;;;;17.97;80.37;100623.25;5001215;28;20478;-55
2022/08/16 05:35:33;;;;;;;30.13;23.85;;;;;;;18.00;80.17;100628.97;5007796;28;20056;-55
2022/08/16 05:37:59;;;;;;;29.20;23.95;;;;;;;18.05;80.34;100625.63;5007408;28;20080;-55
2022/08/16 05:40:24;;;;;;;30.33;24.65;;;;;;;18.07;80.18;100621.66;5007998;28;20038;-55
2022/08/16 05:42:49;;;;;;;28.95;23.60;;;;;;;18.09;80.31;100622.25;5003244;28;20065;-55
2022/08/16 05:45:15;;;;;;;32.67;24.70;;;;;;;18.10;80.26;100623.06;5011143;28;20436;-56
2022/08/16 05:47:40;;;;;;;29.15;24.55;;;;;;;18.12;80.62;100627.16;5007540;28;20045;-56
2022/08/16 05:50:07;;;;;;;28.50;25.17;;;;;;;18.15;80.78;100634.78;4998677;28;20109;-55
2022/08/16 05:52:33;;;;;;;30.30;25.15;;;;;;;18.17;80.68;100630.00;4999185;28;20037;-54
2022/08/16 05:54:58;;;;;;;32.95;26.40;;;;;;;18.19;80.67;100635.16;4997997;28;20030;-56
2022/08/16 05:57:24;;;;;;;29.88;25.40;;;;;;;18.19;80.99;100638.66;4998675;28;20038;-55
2022/08/16 05:59:49;;;;;;;33.25;26.08;;;;;;;18.19;81.16;100644.03;4999187;28;20536;-55
2022/08/16 06:02:15;;;;;;;33.00;26.25;;;;;;;18.23;81.00;100645.25;5001401;28;20066;-56
2022/08/16 06:04:41;;;;;;;30.33;25.90;;;;;;;18.27;80.96;100641.06;4997251;28;20080;-55
2022/08/16 06:07:07;;;;;;;32.42;25.20;;;;;;;18.33;80.85;100633.13;4998592;28;20054;-56
2022/08/16 06:09:33;;;;;;;30.27;25.17;;;;;;;18.42;80.67;100645.22;5000161;28;20022;-56
2022/08/16 06:12:01;;;;;;;34.75;25.08;;;;;;;18.50;80.45;100651.13;4998924;28;20038;-57
2022/08/16 06:14:28;;;;;;;30.67;25.98;;;;;;;18.57;80.24;100656.41;5000269;28;20557;-57
2022/08/16 06:16:53;;;;;;;28.88;25.13;;;;;;;18.58;79.91;100647.28;4999450;28;20433;-57
2022/08/16 06:19:19;;;;;;;30.33;24.77;;;;;;;18.62;79.35;100651.19;5002226;28;20034;-57
2022/08/16 06:21:46;;;;;;;30.40;24.15;;;;;;;18.71;79.06;100657.06;5000198;28;20053;-57
2022/08/16 06:24:11;;;;;;;29.70;24.10;;;;;;;18.77;78.53;100662.34;5005923;28;20042;-57
2022/08/16 06:26:36;;;;;;;29.85;23.80;;;;;;;18.81;78.58;100662.72;5007445;28;20552;-57
2022/08/16 06:29:02;;;;;;;28.75;23.85;;;;;;;18.88;78.50;100668.81;5000851;28;20405;-57
2022/08/16 06:31:28;;;;;;;27.20;23.20;;;;;;;18.93;78.18;100666.25;5002502;28;20025;-57
2022/08/16 06:33:53;;;;;;;30.75;24.15;;;;;;;18.92;77.96;100656.53;5005956;28;20054;-57
2022/08/16 06:36:18;;;;;;;25.80;23.10;;;;;;;19.01;77.93;100667.78;5008509;28;20061;-57
2022/08/16 06:38:44;;;;;;;26.65;23.23;;;;;;;19.06;77.33;100667.91;5007509;28;20045;-58
2022/08/16 06:41:10;;;;;;;28.52;24.38;;;;;;;19.14;77.63;100673.00;5008807;28;20038;-57
2022/08/16 06:43:36;;;;;;;30.98;24.67;;;;;;;19.17;77.38;100675.22;5009810;28;20026;-57
2022/08/16 06:46:06;;;;;;;31.27;24.45;;;;;;;19.24;76.99;100672.41;5011245;28;20157;-57
2022/08/16 06:48:32;;;;;;;28.00;24.92;;;;;;;19.26;77.11;100663.06;5007464;28;20031;-57
2022/08/16 06:50:57;;;;;;;35.38;25.58;;;;;;;19.30;76.66;100664.22;5016579;28;20034;-58
2022/08/16 06:53:23;;;;;;;32.63;25.58;;;;;;;19.37;77.04;100667.66;5007017;28;20026;-57
2022/08/16 06:55:48;;;;;;;31.13;25.50;;;;;;;19.43;76.84;100669.41;5014228;28;20028;-58
2022/08/16 06:58:14;;;;;;;36.05;25.95;;;;;;;19.45;76.57;100675.38;5008637;28;20477;-57
2022/08/16 07:00:39;;;;;;;30.88;24.80;;;;;;;19.47;76.26;100680.53;5011384;28;20054;-57
2022/08/16 07:03:05;;;;;;;30.65;25.75;;;;;;;19.48;76.23;100680.28;5009462;28;20494;-57
2022/08/16 07:05:31;;;;;;;31.38;25.80;;;;;;;19.49;76.34;100679.25;5009369;28;20767;-57
2022/08/16 07:07:57;;;;;;;32.97;25.67;;;;;;;19.55;75.89;100677.50;5010297;28;20030;-57
2022/08/16 07:10:23;;;;;;;32.90;25.75;;;;;;;19.59;76.06;100681.38;5016620;28;20489;-57
2022/08/16 07:12:50;;;;;;;30.90;26.77;;;;;;;19.62;75.93;100680.09;5007866;28;20054;-57
2022/08/16 07:15:17;;;;;;;34.78;26.88;;;;;;;19.66;75.74;100678.56;5007500;28;20037;-57
2022/08/16 07:17:43;;;;;;;32.38;27.98;;;;;;;19.73;75.71;100685.50;5010050;28;20033;-57
2022/08/16 07:20:09;;;;;;;30.10;26.67;;;;;;;19.81;75.79;100689.69;5011631;28;20084;-57
2022/08/16 07:22:35;;;;;;;31.83;26.75;;;;;;;19.87;75.84;100690.63;5008136;28;20061;-57
2022/08/16 07:25:00;;;;;;;35.20;28.25;;;;;;;19.94;75.26;100691.31;5009330;28;20054;-57
2022/08/16 07:27:26;;;;;;;34.20;28.83;;;;;;;19.97;74.90;100689.00;5010906;28;20632;-58
2022/08/16 07:29:51;;;;;;;33.28;27.85;;;;;;;20.07;75.40;100689.22;5011361;28;20033;-58
2022/08/16 07:32:19;;;;;;;36.40;29.85;;;;;;;20.14;74.79;100707.13;5004399;28;20021;-57
2022/08/16 07:34:44;;;;;;;32.63;28.17;;;;;;;20.18;74.58;100698.34;5005901;28;20092;-58
2022/08/16 07:37:10;;;;;;;36.47;28.25;;;;;;;20.29;74.26;100707.47;5007134;28;20037;-58
2022/08/16 07:39:36;;;;;;;33.67;26.88;;;;;;;20.36;73.58;100713.56;5009933;28;20511;-58
2022/08/16 07:42:02;;;;;;;35.13;25.90;;;;;;;20.44;73.85;100705.13;5008617;28;20033;-58
2022/08/16 07:44:27;;;;;;;29.75;24.30;;;;;;;20.51;73.30;100713.06;5013615;28;20026;-58
2022/08/16 07:46:54;;;;;;;31.00;24.58;;;;;;;20.56;72.51;100719.41;5011590;28;20028;-58
2022/08/16 07:49:19;;;;;;;31.75;22.95;;;;;;;20.61;72.01;100702.50;5009615;28;20030;-56
2022/08/16 07:51:44;;;;;;;29.70;23.27;;;;;;;20.69;72.16;100700.22;5010516;28;20022;-57
2022/08/16 07:54:10;;;;;;;25.60;22.85;;;;;;;20.76;71.20;100704.66;5007058;28;20034;-58
2022/08/16 07:56:37;;;;;;;25.20;22.50;;;;;;;20.78;71.14;100706.03;4999796;28;20030;-57
2022/08/16 07:59:02;;;;;;;30.63;22.75;;;;;;;20.82;71.05;100703.72;4999316;28;20027;-59
2022/08/16 08:01:29;;;;;;;27.02;23.17;;;;;;;20.91;71.19;100713.88;4999373;28;20022;-58
2022/08/16 08:03:55;;;;;;;27.05;22.63;;;;;;;20.99;71.08;100707.25;5000935;28;20033;-57
2022/08/16 08:06:22;;;;;;;26.63;21.73;;;;;;;21.09;70.62;100707.41;4998673;28;20026;-58
2022/08/16 08:08:48;;;;;;;29.27;19.83;;;;;;;21.24;70.45;100710.44;4997137;28;20030;-57
2022/08/16 08:11:14;;;;;;;25.35;21.77;;;;;;;21.22;70.24;100690.94;4999110;28;20036;-58
2022/08/16 08:13:39;;;;;;;27.13;22.25;;;;;;;21.33;69.31;100711.66;4998572;28;20029;-57
2022/08/16 08:16:05;;;;;;;25.48;21.73;;;;;;;21.37;69.23;100716.56;5000816;28;20097;-58
2022/08/16 08:18:30;;;;;;;28.73;21.33;;;;;;;21.50;69.64;100721.66;4995907;28;20045;-58
2022/08/16 08:20:56;;;;;;;23.48;20.80;;;;;;;21.57;68.92;100722.31;4997012;28;20022;-58
2022/08/16 08:23:22;;;;;;;22.88;19.23;;;;;;;21.68;68.95;100721.41;4998920;28;20025;-58
2022/08/16 08:25:48;;;;;;;23.75;19.20;;;;;;;21.72;68.43;100727.97;5003807;28;20025;-58
2022/08/16 08:28:14;;;;;;;22.42;19.00;;;;;;;21.80;67.65;100724.03;5001509;28;20030;-58
2022/08/16 08:30:40;;;;;;;21.52;18.67;;;;;;;21.88;67.07;100724.41;4998731;28;20118;-58
2022/08/16 08:33:06;;;;;;;19.98;17.75;;;;;;;21.97;66.85;100735.63;5000046;28;20240;-58
2022/08/16 08:35:31;;;;;;;24.13;17.00;;;;;;;22.05;66.78;100729.84;5001044;28;20030;-56
2022/08/16 08:37:57;;;;;;;20.48;16.45;;;;;;;22.20;66.00;100729.22;5007016;28;20041;-57
2022/08/16 08:40:24;;;;;;;22.63;16.90;;;;;;;22.38;65.72;100739.75;4999923;28;20017;-58
2022/08/16 08:42:51;;;;;;;21.27;16.58;;;;;;;22.44;64.74;100730.63;4997233;28;20022;-58
2022/08/16 08:45:16;;;;;;;18.48;15.55;;;;;;;22.53;64.11;100734.53;4997932;28;20066;-57
2022/08/16 08:47:45;;;;;;;17.90;15.20;;;;;;;22.69;63.78;100734.72;5007051;28;20060;-58
2022/08/16 08:50:11;;;;;;;20.27;15.70;;;;;;;22.70;62.92;100741.75;5011945;28;20038;-58
2022/08/16 08:52:36;;;;;;;16.42;14.73;;;;;;;22.78;62.60;100738.59;5005842;28;20671;-57
2022/08/16 08:55:08;;;;;;;18.77;14.88;;;;;;;22.83;62.30;100742.22;5012133;28;20025;-58
2022/08/16 08:57:34;;;;;;;20.90;14.38;;;;;;;22.91;61.65;100734.72;5006875;28;20026;-57
2022/08/16 09:00:00;;;;;;;21.40;14.05;;;;;;;23.02;61.82;100737.28;5007046;28;20386;-57
2022/08/16 09:02:25;;;;;;;16.05;13.73;;;;;;;23.09;61.50;100740.59;5004170;28;20060;-57
2022/08/16 09:04:51;;;;;;;17.75;13.90;;;;;;;23.29;61.00;100744.59;5008173;28;20152;-56
2022/08/16 09:07:16;;;;;;;16.90;13.00;;;;;;;23.40;60.50;100740.88;5008184;28;20030;-57
2022/08/16 09:09:41;;;;;;;19.48;13.57;;;;;;;23.45;60.70;100744.47;5010692;28;20017;-57
2022/08/16 09:12:07;;;;;;;18.88;14.73;;;;;;;23.49;59.88;100748.31;5006656;28;20619;-58
2022/08/16 09:14:37;;;;;;;17.00;12.80;;;;;;;23.58;59.46;100745.94;5008124;28;20126;-58
2022/08/16 09:17:03;;;;;;;16.15;13.02;;;;;;;23.72;59.38;100746.34;5002862;28;20478;-58
2022/08/16 09:19:29;;;;;;;15.40;11.57;;;;;;;23.74;58.65;100745.00;5008117;28;20052;-57
2022/08/16 09:21:55;;;;;;;16.55;12.73;;;;;;;23.88;58.32;100752.69;4999514;28;20025;-58
2022/08/16 09:24:20;;;;;;;14.30;11.60;;;;;;;24.08;58.66;100745.50;5000865;28;20408;-57
2022/08/16 09:26:45;;;;;;;13.90;12.10;;;;;;;24.18;58.09;100750.16;5007997;28;20025;-57
2022/08/16 09:29:11;;;;;;;14.60;10.68;;;;;;;24.36;57.46;100757.91;5005987;28;20511;-57
2022/08/16 09:31:36;;;;;;;16.38;10.63;;;;;;;24.48;56.26;100765.00;4994138;28;20034;-56
2022/08/16 09:34:02;;;;;;;11.32;9.07;;;;;;;24.62;55.92;100771.59;4997288;28;20034;-58
2022/08/16 09:36:28;;;;;;;15.45;10.32;;;;;;;24.63;54.87;100765.09;4996041;28;20026;-58
2022/08/16 09:38:55;;;;;;;13.52;9.77;;;;;;;24.77;55.05;100759.97;4999324;28;20058;-58
2022/08/16 09:41:20;;;;;;;12.32;9.70;;;;;;;24.93;54.80;100767.09;5000403;28;20041;-58
2022/08/16 09:43:45;;;;;;;16.10;9.40;;;;;;;25.10;54.32;100761.44;4998815;28;20018;-57
2022/08/16 09:46:11;;;;;;;12.00;10.00;;;;;;;25.25;53.43;100764.19;4997894;28;20039;-58
2022/08/16 09:48:40;;;;;;;12.07;8.93;;;;;;;25.32;52.80;100764.72;5005333;28;20028;-58
2022/08/16 09:51:05;;;;;;;13.10;7.93;;;;;;;25.35;51.78;100766.91;5006930;28;20132;-58
2022/08/16 09:53:31;;;;;;;12.27;7.88;;;;;;;25.43;51.79;100765.53;5008037;28;20510;-58
2022/08/16 09:55:57;;;;;;;11.80;7.10;;;;;;;25.57;51.23;100759.31;5005435;28;20033;-58
2022/08/16 09:58:24;;;;;;;8.98;7.07;;;;;;;25.72;50.70;100763.94;5009226;28;20026;-58
2022/08/16 10:00:50;;;;;;;9.85;7.18;;;;;;;25.88;50.60;100759.31;5010981;28;20037;-56
2022/08/16 10:03:17;;;;;;;13.30;7.05;;;;;;;26.02;50.05;100760.41;5008592;28;20493;-58
2022/08/16 10:05:43;;;;;;;8.73;6.82;;;;;;;26.24;49.71;100754.63;5009357;28;20033;-58
2022/08/16 10:08:09;;;;;;;10.48;6.88;;;;;;;26.30;49.15;100758.13;5009425;28;20092;-58
2022/08/16 10:10:34;;;;;;;11.73;6.65;;;;;;;26.38;48.62;100749.44;5005630;28;20047;-56
2022/08/16 10:13:13;;;;;;;9.02;6.70;;;;;;;26.49;48.65;100749.13;5011801;28;20048;-57
2022/08/16 10:15:42;;;;;;;;;;;;;;;26.63;48.06;100764.88;5005316;28;20076;-58
2022/08/16 10:18:09;;;;;;;;;;;;;;;26.75;47.82;100758.00;5001928;28;19910;-58
2022/08/16 10:20:36;;;;;;;;;;;;;;;26.91;46.89;100771.56;5004217;28;19933;-58
2022/08/16 10:23:03;;;;;;;;;;;;;;;26.93;46.29;100772.91;5003876;28;19914;-58
2022/08/16 10:25:28;;;;;;;;;;;;;;;26.91;45.93;100758.75;5007586;28;19968;-57
2022/08/16 10:27:53;;;;;;;;;;;;;;;26.95;46.13;100764.44;5014597;28;19913;-58
2022/08/16 10:30:18;;;;;;;;;;;;;;;27.03;46.04;100761.16;5017461;28;20000;-58
2022/08/16 10:32:44;;;;;;;;;;;;;;;27.14;46.04;100765.41;5009739;28;19913;-58
2022/08/16 10:35:09;;;;;;;;;;;;;;;27.20;45.74;100771.69;5012433;28;20412;-58
2022/08/16 10:37:34;;;;;;;;;;;;;;;27.25;44.96;100775.19;5007852;28;20016;-58
2022/08/16 10:40:00;;;;;;;;;;;;;;;27.16;45.34;100760.50;5007380;28;20415;-58
2022/08/16 10:42:26;;;;;;;;;;;;;;;27.01;44.80;100774.25;5005041;28;19914;-58
2022/08/16 10:44:51;;;;;;;;;;;;;;;26.90;45.08;100778.09;5004680;28;19910;-58
2022/08/16 10:47:16;;;;;;;;;;;;;;;26.79;45.59;100780.03;5002583;28;19983;-58
2022/08/16 10:49:42;;;;;;;;;;;;;;;26.70;45.86;100771.66;5005131;28;19913;-57
2022/08/16 10:52:07;;;;;;;;;;;;;;;26.84;46.32;100782.75;5002695;28;19933;-57
2022/08/16 10:54:32;;;;;;;;;;;;;;;27.03;45.64;100786.50;5014662;28;19917;-58
2022/08/16 10:56:58;;;;;;;;;;;;;;;27.16;45.39;100787.75;5008134;28;19913;-58
2022/08/16 10:59:24;;;;;;;;;;;;;;;27.24;44.96;100779.00;4998918;28;19921;-58
2022/08/16 11:01:50;;;;;;;;;;;;;;;27.23;44.74;100779.28;5003632;28;19916;-58
2022/08/16 11:04:15;;;;;;;;;;;;;;;27.21;44.34;100786.94;4998464;28;19960;-58
2022/08/16 11:06:41;;;;;;;;;;;;;;;27.30;44.54;100787.97;5000330;28;19909;-57
2022/08/16 11:09:06;;;;;;;;;;;;;;;27.57;44.63;100792.97;4996727;28;19913;-57
2022/08/16 11:11:31;;;;;;;;;;;;;;;27.72;43.70;100792.84;4997983;28;20280;-57
2022/08/16 11:13:56;;;;;;;;;;;;;;;27.83;43.44;100793.59;4999527;28;19978;-58